Disclaimer

Please do not use the information listed here in-flight or in-navigation, as they are not provided to us by the airports but are provided by volunteers, so they might be outdated.

Search


Regions


Airport information page

Radio informations:
LATACUNGA GND - 121.9 MHz
LATACUNGA APP/TW - 118.5 MHz

Airport informations:
Latitude: 00° 54' 24.60" S
Longitude: 078° 36' 56.72" W
Elevation: 9205 feet - 2806 meters
Operating hours: Remarks
Operating agency: Military-civil joint use airport
Timezone: UTC-5
Fuel: Unknown fuel type or whether there is any fuel.

Runway information:
18/36 - 12117 x 148 feet< - >3693 x 45 meters

Recent METARs:
SELT 211700Z 17007KT 9999 SCT040 SCT300 19/10 Q1030
SELT 211800Z 16008KT 9999 SCT040 SCT300 20/10 Q1029
SELT 211800Z 16008KT 9999 SCT040 SCT300 20/10 Q1029

Airport on the map: